sensor_id;sensor_type;location;lat;lon;timestamp;temperature;humidity
13389;DHT22;6764;53.250;10.410;2022-07-29T00:02:12;16.00;98.30
13389;DHT22;6764;53.250;10.410;2022-07-29T00:04:38;16.00;98.40
13389;DHT22;6764;53.250;10.410;2022-07-29T00:07:04;15.90;98.40
13389;DHT22;6764;53.250;10.410;2022-07-29T00:09:30;15.90;98.60
13389;DHT22;6764;53.250;10.410;2022-07-29T00:11:59;15.90;98.70
13389;DHT22;6764;53.250;10.410;2022-07-29T00:14:26;15.80;98.80
13389;DHT22;6764;53.250;10.410;2022-07-29T00:16:51;15.80;99.00
13389;DHT22;6764;53.250;10.410;2022-07-29T00:19:17;15.80;99.40
13389;DHT22;6764;53.250;10.410;2022-07-29T00:21:43;15.80;99.10
13389;DHT22;6764;53.250;10.410;2022-07-29T00:24:08;15.70;99.30
13389;DHT22;6764;53.250;10.410;2022-07-29T00:26:34;15.70;99.60
13389;DHT22;6764;53.250;10.410;2022-07-29T00:29:01;15.60;99.30
13389;DHT22;6764;53.250;10.410;2022-07-29T00:31:27;15.60;99.50
13389;DHT22;6764;53.250;10.410;2022-07-29T00:33:52;15.70;99.50
13389;DHT22;6764;53.250;10.410;2022-07-29T00:36:18;15.70;99.50
13389;DHT22;6764;53.250;10.410;2022-07-29T00:38:46;15.70;99.40
13389;DHT22;6764;53.250;10.410;2022-07-29T00:41:12;15.60;99.50
13389;DHT22;6764;53.250;10.410;2022-07-29T00:43:38;15.60;99.60
13389;DHT22;6764;53.250;10.410;2022-07-29T00:46:03;15.60;99.60
13389;DHT22;6764;53.250;10.410;2022-07-29T00:48:29;15.60;99.60
13389;DHT22;6764;53.250;10.410;2022-07-29T00:50:57;15.60;99.60
13389;DHT22;6764;53.250;10.410;2022-07-29T00:53:24;15.60;99.60
13389;DHT22;6764;53.250;10.410;2022-07-29T00:55:50;15.60;99.70
13389;DHT22;6764;53.250;10.410;2022-07-29T00:58:16;15.60;99.70
13389;DHT22;6764;53.250;10.410;2022-07-29T01:00:42;15.60;99.70
13389;DHT22;6764;53.250;10.410;2022-07-29T01:03:08;15.60;99.70
13389;DHT22;6764;53.250;10.410;2022-07-29T01:05:34;15.60;99.70
13389;DHT22;6764;53.250;10.410;2022-07-29T01:08:00;15.60;99.60
13389;DHT22;6764;53.250;10.410;2022-07-29T01:10:27;15.60;99.80
13389;DHT22;6764;53.250;10.410;2022-07-29T01:12:55;15.60;99.90
13389;DHT22;6764;53.250;10.410;2022-07-29T01:15:22;15.60;99.90
13389;DHT22;6764;53.250;10.410;2022-07-29T01:18:11;15.50;99.90
13389;DHT22;6764;53.250;10.410;2022-07-29T01:31:47;15.50;99.90
13389;DHT22;6764;53.250;10.410;2022-07-29T01:34:53;15.60;99.90
13389;DHT22;6764;53.250;10.410;2022-07-29T01:37:28;15.50;99.90
13389;DHT22;6764;53.250;10.410;2022-07-29T01:39:57;15.60;99.90
13389;DHT22;6764;53.250;10.410;2022-07-29T01:42:34;15.60;99.90
13389;DHT22;6764;53.250;10.410;2022-07-29T01:48:22;15.50;99.90
13389;DHT22;6764;53.250;10.410;2022-07-29T01:50:52;15.50;99.90
13389;DHT22;6764;53.250;10.410;2022-07-29T01:56:29;15.50;99.90
13389;DHT22;6764;53.250;10.410;2022-07-29T01:58:58;15.50;99.90
13389;DHT22;6764;53.250;10.410;2022-07-29T02:01:25;15.40;99.90
13389;DHT22;6764;53.250;10.410;2022-07-29T02:03:53;15.30;99.90
13389;DHT22;6764;53.250;10.410;2022-07-29T02:06:22;15.30;99.90
13389;DHT22;6764;53.250;10.410;2022-07-29T02:08:49;15.20;99.90
13389;DHT22;6764;53.250;10.410;2022-07-29T02:11:16;15.20;99.90
13389;DHT22;6764;53.250;10.410;2022-07-29T02:13:43;15.20;99.90
13389;DHT22;6764;53.250;10.410;2022-07-29T02:16:09;15.30;99.90
13389;DHT22;6764;53.250;10.410;2022-07-29T02:18:37;15.10;99.90
13389;DHT22;6764;53.250;10.410;2022-07-29T02:21:06;14.90;99.90
13389;DHT22;6764;53.250;10.410;2022-07-29T02:23:35;14.90;99.90
13389;DHT22;6764;53.250;10.410;2022-07-29T02:26:02;14.90;99.90
13389;DHT22;6764;53.250;10.410;2022-07-29T02:28:29;15.00;99.90
13389;DHT22;6764;53.250;10.410;2022-07-29T02:30:58;15.10;99.90
13389;DHT22;6764;53.250;10.410;2022-07-29T02:33:25;15.20;99.90
13389;DHT22;6764;53.250;10.410;2022-07-29T02:35:52;15.20;99.90
13389;DHT22;6764;53.250;10.410;2022-07-29T02:38:19;15.30;99.90
13389;DHT22;6764;53.250;10.410;2022-07-29T02:41:29;15.30;99.90
13389;DHT22;6764;53.250;10.410;2022-07-29T02:43:58;15.30;99.90
13389;DHT22;6764;53.250;10.410;2022-07-29T02:46:35;15.40;99.90
13389;DHT22;6764;53.250;10.410;2022-07-29T02:49:35;15.40;99.90
13389;DHT22;6764;53.250;10.410;2022-07-29T02:52:08;15.40;99.90
13389;DHT22;6764;53.250;10.410;2022-07-29T02:54:39;15.40;99.90
13389;DHT22;6764;53.250;10.410;2022-07-29T02:57:19;15.40;99.90
13389;DHT22;6764;53.250;10.410;2022-07-29T02:59:48;15.50;99.90
13389;DHT22;6764;53.250;10.410;2022-07-29T03:02:16;15.40;99.90
13389;DHT22;6764;53.250;10.410;2022-07-29T03:04:43;15.40;99.90
13389;DHT22;6764;53.250;10.410;2022-07-29T03:07:10;15.50;99.90
13389;DHT22;6764;53.250;10.410;2022-07-29T03:09:36;15.50;99.90
13389;DHT22;6764;53.250;10.410;2022-07-29T03:12:04;15.50;99.90
13389;DHT22;6764;53.250;10.410;2022-07-29T03:14:30;15.50;99.90
13389;DHT22;6764;53.250;10.410;2022-07-29T03:16:57;15.50;99.90
13389;DHT22;6764;53.250;10.410;2022-07-29T03:19:22;15.50;99.90
13389;DHT22;6764;53.250;10.410;2022-07-29T03:21:48;15.50;99.90
13389;DHT22;6764;53.250;10.410;2022-07-29T03:24:34;15.50;99.90
13389;DHT22;6764;53.250;10.410;2022-07-29T03:27:01;15.50;99.90
13389;DHT22;6764;53.250;10.410;2022-07-29T03:29:27;15.50;99.90
13389;DHT22;6764;53.250;10.410;2022-07-29T03:31:53;15.50;99.90
13389;DHT22;6764;53.250;10.410;2022-07-29T03:34:19;15.40;99.90
13389;DHT22;6764;53.250;10.410;2022-07-29T03:36:45;15.30;99.90
13389;DHT22;6764;53.250;10.410;2022-07-29T03:39:14;15.30;99.90
13389;DHT22;6764;53.250;10.410;2022-07-29T03:41:44;15.30;99.90
13389;DHT22;6764;53.250;10.410;2022-07-29T03:44:11;15.30;99.90
13389;DHT22;6764;53.250;10.410;2022-07-29T03:46:39;15.30;99.90
13389;DHT22;6764;53.250;10.410;2022-07-29T03:49:06;15.30;99.90
13389;DHT22;6764;53.250;10.410;2022-07-29T03:51:33;15.30;99.90
13389;DHT22;6764;53.250;10.410;2022-07-29T03:54:02;15.30;99.90
13389;DHT22;6764;53.250;10.410;2022-07-29T03:56:28;15.30;99.90
13389;DHT22;6764;53.250;10.410;2022-07-29T03:58:55;15.40;99.90
13389;DHT22;6764;53.250;10.410;2022-07-29T04:01:21;15.30;99.90
13389;DHT22;6764;53.250;10.410;2022-07-29T04:03:48;15.30;99.90
13389;DHT22;6764;53.250;10.410;2022-07-29T04:06:13;15.40;99.90
13389;DHT22;6764;53.250;10.410;2022-07-29T04:08:39;15.40;99.90
13389;DHT22;6764;53.250;10.410;2022-07-29T04:11:05;15.30;99.90
13389;DHT22;6764;53.250;10.410;2022-07-29T04:13:32;15.30;99.90
13389;DHT22;6764;53.250;10.410;2022-07-29T04:15:58;15.30;99.90
13389;DHT22;6764;53.250;10.410;2022-07-29T04:18:24;15.30;99.90
13389;DHT22;6764;53.250;10.410;2022-07-29T04:20:49;15.40;99.90
13389;DHT22;6764;53.250;10.410;2022-07-29T04:23:15;15.40;99.90
13389;DHT22;6764;53.250;10.410;2022-07-29T04:25:41;15.30;99.90
13389;DHT22;6764;53.250;10.410;2022-07-29T04:28:08;15.20;99.90
13389;DHT22;6764;53.250;10.410;2022-07-29T04:30:36;15.30;99.90
13389;DHT22;6764;53.250;10.410;2022-07-29T04:33:04;15.30;99.90
13389;DHT22;6764;53.250;10.410;2022-07-29T04:35:33;15.30;99.90
13389;DHT22;6764;53.250;10.410;2022-07-29T04:37:59;15.30;99.90
13389;DHT22;6764;53.250;10.410;2022-07-29T04:40:25;15.30;99.90
13389;DHT22;6764;53.250;10.410;2022-07-29T04:42:50;15.40;99.90
13389;DHT22;6764;53.250;10.410;2022-07-29T04:45:16;15.40;99.90
13389;DHT22;6764;53.250;10.410;2022-07-29T04:47:42;15.50;99.90
13389;DHT22;6764;53.250;10.410;2022-07-29T04:50:08;15.60;99.90
13389;DHT22;6764;53.250;10.410;2022-07-29T04:52:34;15.60;99.90
13389;DHT22;6764;53.250;10.410;2022-07-29T04:55:04;15.60;99.90
13389;DHT22;6764;53.250;10.410;2022-07-29T04:57:30;15.70;99.90
13389;DHT22;6764;53.250;10.410;2022-07-29T04:59:55;15.80;99.90
13389;DHT22;6764;53.250;10.410;2022-07-29T05:02:21;15.80;99.90
13389;DHT22;6764;53.250;10.410;2022-07-29T05:04:47;16.00;99.90
13389;DHT22;6764;53.250;10.410;2022-07-29T05:07:13;16.10;99.90
13389;DHT22;6764;53.250;10.410;2022-07-29T05:09:39;16.10;99.90
13389;DHT22;6764;53.250;10.410;2022-07-29T05:12:05;16.20;99.90
13389;DHT22;6764;53.250;10.410;2022-07-29T05:14:31;16.10;99.90
13389;DHT22;6764;53.250;10.410;2022-07-29T05:16:56;16.10;99.90
13389;DHT22;6764;53.250;10.410;2022-07-29T05:19:23;16.30;99.90
13389;DHT22;6764;53.250;10.410;2022-07-29T05:21:49;16.40;99.90
13389;DHT22;6764;53.250;10.410;2022-07-29T05:24:15;16.40;99.90
13389;DHT22;6764;53.250;10.410;2022-07-29T05:26:41;16.50;99.90
13389;DHT22;6764;53.250;10.410;2022-07-29T05:29:06;16.50;99.90
13389;DHT22;6764;53.250;10.410;2022-07-29T05:31:32;16.60;99.90
13389;DHT22;6764;53.250;10.410;2022-07-29T05:33:59;16.50;99.90
13389;DHT22;6764;53.250;10.410;2022-07-29T05:36:24;16.70;99.90
13389;DHT22;6764;53.250;10.410;2022-07-29T05:38:50;16.70;99.90
13389;DHT22;6764;53.250;10.410;2022-07-29T05:41:17;16.70;99.90
13389;DHT22;6764;53.250;10.410;2022-07-29T05:43:43;16.70;99.90
13389;DHT22;6764;53.250;10.410;2022-07-29T05:46:09;16.70;99.90
13389;DHT22;6764;53.250;10.410;2022-07-29T05:48:34;16.80;99.90
13389;DHT22;6764;53.250;10.410;2022-07-29T05:51:00;16.90;99.90
13389;DHT22;6764;53.250;10.410;2022-07-29T05:53:26;17.00;99.90
13389;DHT22;6764;53.250;10.410;2022-07-29T05:55:51;17.00;99.90
13389;DHT22;6764;53.250;10.410;2022-07-29T05:58:17;17.00;99.90
13389;DHT22;6764;53.250;10.410;2022-07-29T06:00:43;17.00;99.90
13389;DHT22;6764;53.250;10.410;2022-07-29T06:03:09;17.00;99.90
13389;DHT22;6764;53.250;10.410;2022-07-29T06:05:34;17.10;99.90
13389;DHT22;6764;53.250;10.410;2022-07-29T06:08:00;17.30;99.90
13389;DHT22;6764;53.250;10.410;2022-07-29T06:10:26;17.40;99.90
13389;DHT22;6764;53.250;10.410;2022-07-29T06:12:52;17.50;99.90
13389;DHT22;6764;53.250;10.410;2022-07-29T06:15:17;17.60;99.90
13389;DHT22;6764;53.250;10.410;2022-07-29T06:17:43;17.70;99.90
13389;DHT22;6764;53.250;10.410;2022-07-29T06:20:09;17.70;99.90
13389;DHT22;6764;53.250;10.410;2022-07-29T06:22:35;17.80;99.90
13389;DHT22;6764;53.250;10.410;2022-07-29T06:25:02;17.90;99.90
13389;DHT22;6764;53.250;10.410;2022-07-29T06:27:27;18.10;99.90
13389;DHT22;6764;53.250;10.410;2022-07-29T06:29:53;18.30;99.90
13389;DHT22;6764;53.250;10.410;2022-07-29T06:32:19;18.50;99.90
13389;DHT22;6764;53.250;10.410;2022-07-29T06:34:44;18.50;99.90
13389;DHT22;6764;53.250;10.410;2022-07-29T06:37:10;18.60;99.90
13389;DHT22;6764;53.250;10.410;2022-07-29T06:39:36;18.70;99.90
13389;DHT22;6764;53.250;10.410;2022-07-29T06:42:03;18.80;99.90
13389;DHT22;6764;53.250;10.410;2022-07-29T06:44:29;18.90;99.90
13389;DHT22;6764;53.250;10.410;2022-07-29T06:46:56;19.00;99.90
13389;DHT22;6764;53.250;10.410;2022-07-29T06:49:22;19.10;99.90
13389;DHT22;6764;53.250;10.410;2022-07-29T06:51:49;19.10;99.90
13389;DHT22;6764;53.250;10.410;2022-07-29T06:54:15;19.10;99.90
13389;DHT22;6764;53.250;10.410;2022-07-29T06:56:40;19.10;99.90
13389;DHT22;6764;53.250;10.410;2022-07-29T06:59:08;19.20;99.90
13389;DHT22;6764;53.250;10.410;2022-07-29T07:01:39;19.20;99.80
13389;DHT22;6764;53.250;10.410;2022-07-29T07:04:05;19.30;99.90
13389;DHT22;6764;53.250;10.410;2022-07-29T07:06:31;19.40;99.70
13389;DHT22;6764;53.250;10.410;2022-07-29T07:08:56;19.50;99.50
13389;DHT22;6764;53.250;10.410;2022-07-29T07:11:22;19.60;99.60
13389;DHT22;6764;53.250;10.410;2022-07-29T07:13:48;19.60;99.20
13389;DHT22;6764;53.250;10.410;2022-07-29T07:16:13;19.20;99.80
13389;DHT22;6764;53.250;10.410;2022-07-29T07:18:39;19.20;99.90
13389;DHT22;6764;53.250;10.410;2022-07-29T07:21:05;19.20;99.90
13389;DHT22;6764;53.250;10.410;2022-07-29T07:23:31;19.30;99.90
13389;DHT22;6764;53.250;10.410;2022-07-29T07:25:56;19.50;99.90
13389;DHT22;6764;53.250;10.410;2022-07-29T07:28:22;19.70;99.40
13389;DHT22;6764;53.250;10.410;2022-07-29T07:30:48;19.30;99.90
13389;DHT22;6764;53.250;10.410;2022-07-29T07:33:14;19.80;99.90
13389;DHT22;6764;53.250;10.410;2022-07-29T07:35:40;20.30;99.00
13389;DHT22;6764;53.250;10.410;2022-07-29T07:38:06;20.70;98.00
13389;DHT22;6764;53.250;10.410;2022-07-29T07:40:31;21.10;97.40
13389;DHT22;6764;53.250;10.410;2022-07-29T07:42:57;21.40;96.60
13389;DHT22;6764;53.250;10.410;2022-07-29T07:45:23;22.00;95.40
13389;DHT22;6764;53.250;10.410;2022-07-29T07:47:48;22.20;94.60
13389;DHT22;6764;53.250;10.410;2022-07-29T07:50:14;22.80;93.80
13389;DHT22;6764;53.250;10.410;2022-07-29T07:52:51;23.50;92.30
13389;DHT22;6764;53.250;10.410;2022-07-29T07:55:17;24.00;91.40
13389;DHT22;6764;53.250;10.410;2022-07-29T07:57:44;24.70;90.30
13389;DHT22;6764;53.250;10.410;2022-07-29T08:00:11;25.40;88.40
13389;DHT22;6764;53.250;10.410;2022-07-29T08:02:38;26.00;85.60
13389;DHT22;6764;53.250;10.410;2022-07-29T08:05:05;26.20;83.90
13389;DHT22;6764;53.250;10.410;2022-07-29T08:07:31;26.40;82.80
13389;DHT22;6764;53.250;10.410;2022-07-29T08:09:56;26.60;82.10
13389;DHT22;6764;53.250;10.410;2022-07-29T08:12:22;26.70;81.70
13389;DHT22;6764;53.250;10.410;2022-07-29T08:14:47;26.70;80.50
13389;DHT22;6764;53.250;10.410;2022-07-29T08:17:13;26.70;80.80
13389;DHT22;6764;53.250;10.410;2022-07-29T08:19:39;27.40;80.00
13389;DHT22;6764;53.250;10.410;2022-07-29T08:22:05;28.20;78.50
13389;DHT22;6764;53.250;10.410;2022-07-29T08:24:30;28.70;77.50
13389;DHT22;6764;53.250;10.410;2022-07-29T08:27:09;29.50;74.10
13389;DHT22;6764;53.250;10.410;2022-07-29T08:29:35;29.90;73.00
13389;DHT22;6764;53.250;10.410;2022-07-29T08:32:01;30.30;71.60
13389;DHT22;6764;53.250;10.410;2022-07-29T08:34:27;30.70;70.40
13389;DHT22;6764;53.250;10.410;2022-07-29T08:36:54;31.30;69.20
13389;DHT22;6764;53.250;10.410;2022-07-29T08:39:19;31.80;67.60
13389;DHT22;6764;53.250;10.410;2022-07-29T08:41:45;32.40;65.90
13389;DHT22;6764;53.250;10.410;2022-07-29T08:44:11;32.80;64.10
13389;DHT22;6764;53.250;10.410;2022-07-29T08:46:38;33.30;63.30
13389;DHT22;6764;53.250;10.410;2022-07-29T08:49:04;33.60;61.90
13389;DHT22;6764;53.250;10.410;2022-07-29T08:51:30;33.30;62.60
13389;DHT22;6764;53.250;10.410;2022-07-29T08:53:58;34.00;61.40
13389;DHT22;6764;53.250;10.410;2022-07-29T08:56:24;34.60;59.30
13389;DHT22;6764;53.250;10.410;2022-07-29T08:58:50;34.80;59.10
13389;DHT22;6764;53.250;10.410;2022-07-29T09:01:24;35.30;57.60
13389;DHT22;6764;53.250;10.410;2022-07-29T09:03:50;35.40;57.30
13389;DHT22;6764;53.250;10.410;2022-07-29T09:06:21;35.70;56.50
13389;DHT22;6764;53.250;10.410;2022-07-29T09:08:47;35.60;55.90
13389;DHT22;6764;53.250;10.410;2022-07-29T09:11:14;35.90;55.50
13389;DHT22;6764;53.250;10.410;2022-07-29T09:13:40;36.00;54.40
13389;DHT22;6764;53.250;10.410;2022-07-29T09:16:06;35.80;55.80
13389;DHT22;6764;53.250;10.410;2022-07-29T09:18:39;36.50;54.40
13389;DHT22;6764;53.250;10.410;2022-07-29T09:21:07;36.70;53.90
13389;DHT22;6764;53.250;10.410;2022-07-29T09:24:18;36.30;53.70
13389;DHT22;6764;53.250;10.410;2022-07-29T09:26:45;35.80;54.50
13389;DHT22;6764;53.250;10.410;2022-07-29T09:29:13;35.70;54.80
13389;DHT22;6764;53.250;10.410;2022-07-29T09:31:42;35.40;54.50
13389;DHT22;6764;53.250;10.410;2022-07-29T09:34:08;34.70;55.10
13389;DHT22;6764;53.250;10.410;2022-07-29T09:36:41;34.70;54.20
13389;DHT22;6764;53.250;10.410;2022-07-29T09:39:07;34.10;54.10
13389;DHT22;6764;53.250;10.410;2022-07-29T09:44:10;34.00;55.60
13389;DHT22;6764;53.250;10.410;2022-07-29T09:46:36;33.80;55.90
13389;DHT22;6764;53.250;10.410;2022-07-29T09:49:10;33.60;56.10
13389;DHT22;6764;53.250;10.410;2022-07-29T09:51:36;33.10;56.60
13389;DHT22;6764;53.250;10.410;2022-07-29T09:56:48;32.10;57.60
13389;DHT22;6764;53.250;10.410;2022-07-29T09:59:14;31.50;58.30
13389;DHT22;6764;53.250;10.410;2022-07-29T10:01:40;31.40;58.60
13389;DHT22;6764;53.250;10.410;2022-07-29T10:04:06;31.20;58.70
13389;DHT22;6764;53.250;10.410;2022-07-29T10:06:31;30.80;59.50
13389;DHT22;6764;53.250;10.410;2022-07-29T10:09:10;29.90;60.90
13389;DHT22;6764;53.250;10.410;2022-07-29T10:11:36;30.00;61.00
13389;DHT22;6764;53.250;10.410;2022-07-29T10:14:03;30.40;60.60
13389;DHT22;6764;53.250;10.410;2022-07-29T10:16:29;30.90;60.20
13389;DHT22;6764;53.250;10.410;2022-07-29T10:18:58;31.00;59.20
13389;DHT22;6764;53.250;10.410;2022-07-29T10:21:25;30.90;59.30
13389;DHT22;6764;53.250;10.410;2022-07-29T10:23:52;31.00;59.40
13389;DHT22;6764;53.250;10.410;2022-07-29T10:26:18;31.60;58.40
13389;DHT22;6764;53.250;10.410;2022-07-29T10:28:44;32.10;56.60
13389;DHT22;6764;53.250;10.410;2022-07-29T10:31:22;32.00;56.80
13389;DHT22;6764;53.250;10.410;2022-07-29T10:37:12;31.70;57.20
13389;DHT22;6764;53.250;10.410;2022-07-29T10:42:53;32.40;55.60
13389;DHT22;6764;53.250;10.410;2022-07-29T10:45:20;32.20;55.70
13389;DHT22;6764;53.250;10.410;2022-07-29T10:47:46;32.00;55.00
13389;DHT22;6764;53.250;10.410;2022-07-29T10:50:12;31.90;55.80
13389;DHT22;6764;53.250;10.410;2022-07-29T10:52:52;32.00;55.10
13389;DHT22;6764;53.250;10.410;2022-07-29T10:55:36;32.10;54.80
13389;DHT22;6764;53.250;10.410;2022-07-29T10:58:16;32.00;54.20
13389;DHT22;6764;53.250;10.410;2022-07-29T11:00:43;32.20;52.40
13389;DHT22;6764;53.250;10.410;2022-07-29T11:03:09;32.10;52.30
13389;DHT22;6764;53.250;10.410;2022-07-29T11:05:55;32.40;52.00
13389;DHT22;6764;53.250;10.410;2022-07-29T11:08:21;32.50;52.40
13389;DHT22;6764;53.250;10.410;2022-07-29T11:10:49;31.50;53.10
13389;DHT22;6764;53.250;10.410;2022-07-29T11:13:52;31.10;54.40
13389;DHT22;6764;53.250;10.410;2022-07-29T11:16:20;30.50;54.60
13389;DHT22;6764;53.250;10.410;2022-07-29T11:21:43;30.10;55.30
13389;DHT22;6764;53.250;10.410;2022-07-29T11:24:20;30.00;55.50
13389;DHT22;6764;53.250;10.410;2022-07-29T11:27:13;30.10;55.60
13389;DHT22;6764;53.250;10.410;2022-07-29T11:29:51;30.20;55.60
13389;DHT22;6764;53.250;10.410;2022-07-29T11:32:17;30.10;54.40
13389;DHT22;6764;53.250;10.410;2022-07-29T11:34:48;30.10;54.80
13389;DHT22;6764;53.250;10.410;2022-07-29T11:37:15;29.90;55.00
13389;DHT22;6764;53.250;10.410;2022-07-29T11:45:08;29.30;56.60
13389;DHT22;6764;53.250;10.410;2022-07-29T11:47:46;29.40;56.20
13389;DHT22;6764;53.250;10.410;2022-07-29T11:50:15;29.20;56.70
13389;DHT22;6764;53.250;10.410;2022-07-29T11:52:44;29.20;56.30
13389;DHT22;6764;53.250;10.410;2022-07-29T11:55:16;29.00;56.80
13389;DHT22;6764;53.250;10.410;2022-07-29T11:57:50;29.20;57.00
13389;DHT22;6764;53.250;10.410;2022-07-29T12:00:26;29.40;57.20
13389;DHT22;6764;53.250;10.410;2022-07-29T12:02:52;29.50;56.00
13389;DHT22;6764;53.250;10.410;2022-07-29T12:05:19;29.20;57.40
13389;DHT22;6764;53.250;10.410;2022-07-29T12:07:45;29.40;57.10
13389;DHT22;6764;53.250;10.410;2022-07-29T12:10:11;29.60;56.40
13389;DHT22;6764;53.250;10.410;2022-07-29T12:12:37;29.70;56.10
13389;DHT22;6764;53.250;10.410;2022-07-29T12:15:17;29.80;55.90
13389;DHT22;6764;53.250;10.410;2022-07-29T12:17:45;29.80;55.70
13389;DHT22;6764;53.250;10.410;2022-07-29T12:20:11;29.90;56.10
13389;DHT22;6764;53.250;10.410;2022-07-29T12:22:40;29.90;55.60
13389;DHT22;6764;53.250;10.410;2022-07-29T12:25:07;29.90;55.50
13389;DHT22;6764;53.250;10.410;2022-07-29T12:27:34;29.80;55.80
13389;DHT22;6764;53.250;10.410;2022-07-29T12:30:02;29.60;56.00
13389;DHT22;6764;53.250;10.410;2022-07-29T12:34:58;29.70;55.80
13389;DHT22;6764;53.250;10.410;2022-07-29T12:37:24;29.80;55.80
13389;DHT22;6764;53.250;10.410;2022-07-29T12:39:50;29.50;56.50
13389;DHT22;6764;53.250;10.410;2022-07-29T12:42:16;29.80;56.60
13389;DHT22;6764;53.250;10.410;2022-07-29T12:44:48;30.10;55.00
13389;DHT22;6764;53.250;10.410;2022-07-29T12:47:15;30.30;55.20
13389;DHT22;6764;53.250;10.410;2022-07-29T12:49:40;30.10;55.70
13389;DHT22;6764;53.250;10.410;2022-07-29T12:52:32;30.30;55.60
13389;DHT22;6764;53.250;10.410;2022-07-29T12:54:58;30.40;55.10
13389;DHT22;6764;53.250;10.410;2022-07-29T12:57:25;30.50;55.20
13389;DHT22;6764;53.250;10.410;2022-07-29T13:00:06;30.80;54.80
13389;DHT22;6764;53.250;10.410;2022-07-29T13:02:36;30.80;54.80
13389;DHT22;6764;53.250;10.410;2022-07-29T13:05:04;30.80;54.90
13389;DHT22;6764;53.250;10.410;2022-07-29T13:07:32;30.60;54.80
13389;DHT22;6764;53.250;10.410;2022-07-29T13:10:15;30.10;55.20
13389;DHT22;6764;53.250;10.410;2022-07-29T13:13:04;29.80;55.30
13389;DHT22;6764;53.250;10.410;2022-07-29T13:15:30;29.30;56.00
13389;DHT22;6764;53.250;10.410;2022-07-29T13:17:56;29.30;56.30
13389;DHT22;6764;53.250;10.410;2022-07-29T13:20:26;29.60;56.20
13389;DHT22;6764;53.250;10.410;2022-07-29T13:22:56;29.60;56.30
13389;DHT22;6764;53.250;10.410;2022-07-29T13:25:30;29.60;55.80
13389;DHT22;6764;53.250;10.410;2022-07-29T13:27:58;29.80;55.00
13389;DHT22;6764;53.250;10.410;2022-07-29T13:30:24;29.90;54.90
13389;DHT22;6764;53.250;10.410;2022-07-29T13:32:54;29.80;54.80
13389;DHT22;6764;53.250;10.410;2022-07-29T13:35:20;29.70;54.80
13389;DHT22;6764;53.250;10.410;2022-07-29T13:37:47;29.60;53.80
13389;DHT22;6764;53.250;10.410;2022-07-29T13:40:13;29.60;54.20
13389;DHT22;6764;53.250;10.410;2022-07-29T13:42:39;29.50;54.20
13389;DHT22;6764;53.250;10.410;2022-07-29T13:45:06;29.50;54.60
13389;DHT22;6764;53.250;10.410;2022-07-29T13:47:32;29.50;54.10
13389;DHT22;6764;53.250;10.410;2022-07-29T13:49:58;29.50;54.50
13389;DHT22;6764;53.250;10.410;2022-07-29T13:52:23;29.50;54.60
13389;DHT22;6764;53.250;10.410;2022-07-29T13:54:49;29.50;54.60
13389;DHT22;6764;53.250;10.410;2022-07-29T13:57:16;29.20;54.50
13389;DHT22;6764;53.250;10.410;2022-07-29T13:59:42;29.30;54.40
13389;DHT22;6764;53.250;10.410;2022-07-29T14:02:09;29.40;54.80
13389;DHT22;6764;53.250;10.410;2022-07-29T14:04:35;29.40;54.40
13389;DHT22;6764;53.250;10.410;2022-07-29T14:07:02;29.50;54.80
13389;DHT22;6764;53.250;10.410;2022-07-29T14:09:28;29.60;54.00
13389;DHT22;6764;53.250;10.410;2022-07-29T14:11:53;29.80;54.50
13389;DHT22;6764;53.250;10.410;2022-07-29T14:14:19;29.70;54.40
13389;DHT22;6764;53.250;10.410;2022-07-29T14:16:45;29.70;54.20
13389;DHT22;6764;53.250;10.410;2022-07-29T14:19:11;29.60;53.90
13389;DHT22;6764;53.250;10.410;2022-07-29T14:21:37;29.20;54.10
13389;DHT22;6764;53.250;10.410;2022-07-29T14:24:03;29.10;54.70
13389;DHT22;6764;53.250;10.410;2022-07-29T14:26:29;29.10;54.10
13389;DHT22;6764;53.250;10.410;2022-07-29T14:28:54;29.10;54.70
13389;DHT22;6764;53.250;10.410;2022-07-29T14:31:20;29.10;54.10
13389;DHT22;6764;53.250;10.410;2022-07-29T14:33:46;29.00;54.10
13389;DHT22;6764;53.250;10.410;2022-07-29T14:36:11;29.00;54.20
13389;DHT22;6764;53.250;10.410;2022-07-29T14:38:37;29.00;53.70
13389;DHT22;6764;53.250;10.410;2022-07-29T14:41:04;29.00;54.20
13389;DHT22;6764;53.250;10.410;2022-07-29T14:43:30;29.00;54.40
13389;DHT22;6764;53.250;10.410;2022-07-29T14:45:55;29.00;55.00
13389;DHT22;6764;53.250;10.410;2022-07-29T14:48:21;29.20;54.90
13389;DHT22;6764;53.250;10.410;2022-07-29T14:50:47;29.20;53.50
13389;DHT22;6764;53.250;10.410;2022-07-29T14:53:12;29.20;53.40
13389;DHT22;6764;53.250;10.410;2022-07-29T14:55:39;29.20;53.30
13389;DHT22;6764;53.250;10.410;2022-07-29T14:58:04;29.10;53.40
13389;DHT22;6764;53.250;10.410;2022-07-29T15:00:30;29.20;53.30
13389;DHT22;6764;53.250;10.410;2022-07-29T15:02:58;28.70;53.40
13389;DHT22;6764;53.250;10.410;2022-07-29T15:05:24;28.80;53.70
13389;DHT22;6764;53.250;10.410;2022-07-29T15:07:50;28.90;53.40
13389;DHT22;6764;53.250;10.410;2022-07-29T15:10:15;28.90;53.60
13389;DHT22;6764;53.250;10.410;2022-07-29T15:12:41;29.00;53.10
13389;DHT22;6764;53.250;10.410;2022-07-29T15:15:07;29.00;53.30
13389;DHT22;6764;53.250;10.410;2022-07-29T15:17:33;29.00;52.70
13389;DHT22;6764;53.250;10.410;2022-07-29T15:19:58;29.00;53.00
13389;DHT22;6764;53.250;10.410;2022-07-29T15:22:24;28.90;52.80
13389;DHT22;6764;53.250;10.410;2022-07-29T15:24:50;28.80;52.70
13389;DHT22;6764;53.250;10.410;2022-07-29T15:27:15;28.70;53.20
13389;DHT22;6764;53.250;10.410;2022-07-29T15:29:41;28.70;54.00
13389;DHT22;6764;53.250;10.410;2022-07-29T15:32:07;28.60;54.40
13389;DHT22;6764;53.250;10.410;2022-07-29T15:34:33;28.60;54.80
13389;DHT22;6764;53.250;10.410;2022-07-29T15:36:59;28.60;54.80
13389;DHT22;6764;53.250;10.410;2022-07-29T15:39:24;28.60;55.10
13389;DHT22;6764;53.250;10.410;2022-07-29T15:41:50;28.60;55.00
13389;DHT22;6764;53.250;10.410;2022-07-29T15:44:16;28.60;55.10
13389;DHT22;6764;53.250;10.410;2022-07-29T15:46:42;28.70;55.00
13389;DHT22;6764;53.250;10.410;2022-07-29T15:49:26;28.70;54.90
13389;DHT22;6764;53.250;10.410;2022-07-29T15:52:00;28.80;54.60
13389;DHT22;6764;53.250;10.410;2022-07-29T15:54:28;28.80;53.90
13389;DHT22;6764;53.250;10.410;2022-07-29T15:56:54;28.80;53.40
13389;DHT22;6764;53.250;10.410;2022-07-29T15:59:20;28.90;53.20
13389;DHT22;6764;53.250;10.410;2022-07-29T16:01:46;28.90;52.80
13389;DHT22;6764;53.250;10.410;2022-07-29T16:04:15;29.00;52.80
13389;DHT22;6764;53.250;10.410;2022-07-29T16:06:42;29.00;53.00
13389;DHT22;6764;53.250;10.410;2022-07-29T16:09:08;29.00;52.90
13389;DHT22;6764;53.250;10.410;2022-07-29T16:11:33;28.90;59.50
13389;DHT22;6764;53.250;10.410;2022-07-29T16:13:59;28.80;62.30
13389;DHT22;6764;53.250;10.410;2022-07-29T16:16:25;28.70;64.80